createdAt,value
2019-03-18T00:00:11.035Z,975.53
2019-03-18T00:01:10.954Z,975.51
2019-03-18T00:02:10.860Z,975.50
2019-03-18T00:03:10.783Z,975.62
2019-03-18T00:04:10.697Z,975.54
2019-03-18T00:05:10.615Z,975.60
2019-03-18T00:06:10.526Z,975.60
2019-03-18T00:07:10.445Z,975.63
2019-03-18T00:08:10.357Z,975.63
2019-03-18T00:09:10.268Z,975.59
2019-03-18T00:10:10.186Z,975.64
2019-03-18T00:11:10.104Z,975.65
2019-03-18T00:12:10.018Z,975.66
2019-03-18T00:13:09.937Z,975.63
2019-03-18T00:14:09.847Z,975.60
2019-03-18T00:15:09.758Z,975.66
2019-03-18T00:16:09.680Z,975.69
2019-03-18T00:17:09.594Z,975.77
2019-03-18T00:18:09.507Z,975.74
2019-03-18T00:19:09.422Z,975.66
2019-03-18T00:20:09.342Z,975.67
2019-03-18T00:21:09.254Z,975.61
2019-03-18T00:22:09.170Z,975.65
2019-03-18T00:23:09.084Z,975.65
2019-03-18T00:24:09.005Z,975.64
2019-03-18T00:25:08.916Z,975.65
2019-03-18T00:26:08.831Z,975.66
2019-03-18T00:27:08.748Z,975.60
2019-03-18T00:28:08.657Z,975.64
2019-03-18T00:29:08.574Z,975.60
2019-03-18T00:30:08.492Z,975.60
2019-03-18T00:31:08.408Z,975.61
2019-03-18T00:32:08.323Z,975.68
2019-03-18T00:33:08.237Z,975.65
2019-03-18T00:34:08.166Z,975.66
2019-03-18T00:35:08.067Z,975.67
2019-03-18T00:36:07.985Z,975.71
2019-03-18T00:37:07.892Z,975.67
2019-03-18T00:38:07.808Z,975.66
2019-03-18T00:39:07.726Z,975.68
2019-03-18T00:40:07.638Z,975.73
2019-03-18T00:41:07.561Z,975.78
2019-03-18T00:42:07.474Z,975.79
2019-03-18T00:43:07.402Z,975.81
2019-03-18T00:44:07.306Z,975.81
2019-03-18T00:45:14.606Z,975.82
2019-03-18T00:46:07.135Z,975.82
2019-03-18T00:47:07.050Z,975.76
2019-03-18T00:48:06.963Z,975.77
2019-03-18T00:49:06.878Z,975.81
2019-03-18T00:50:06.795Z,975.80
2019-03-18T00:51:06.711Z,975.86
2019-03-18T00:52:06.631Z,975.84
2019-03-18T00:53:06.536Z,975.77
2019-03-18T00:54:06.456Z,975.72
2019-03-18T00:55:06.373Z,975.65
2019-03-18T00:56:06.288Z,975.62
2019-03-18T00:57:06.207Z,975.62
2019-03-18T00:58:06.123Z,975.63
2019-03-18T00:59:06.028Z,975.67
2019-03-18T01:00:05.945Z,975.73
2019-03-18T01:01:05.861Z,975.73
2019-03-18T01:02:05.779Z,975.80
2019-03-18T01:03:05.695Z,975.81
2019-03-18T01:04:05.609Z,975.79
2019-03-18T01:05:05.520Z,975.84
2019-03-18T01:06:05.437Z,975.87
2019-03-18T01:07:05.350Z,975.89
2019-03-18T01:08:05.265Z,975.93
2019-03-18T01:09:05.187Z,975.95
2019-03-18T01:10:05.103Z,975.97
2019-03-18T01:11:05.017Z,975.98
2019-03-18T01:12:04.933Z,976.05
2019-03-18T01:13:04.850Z,976.02
2019-03-18T01:14:04.759Z,976.00
2019-03-18T01:15:04.676Z,976.02
2019-03-18T01:16:04.597Z,975.95
2019-03-18T01:17:04.511Z,975.94
2019-03-18T01:18:04.422Z,975.98
2019-03-18T01:19:04.332Z,975.95
2019-03-18T01:20:04.257Z,976.00
2019-03-18T01:21:04.169Z,976.06
2019-03-18T01:22:04.087Z,976.04
2019-03-18T01:23:03.999Z,975.99
2019-03-18T01:24:03.916Z,976.00
2019-03-18T01:25:03.832Z,975.98
2019-03-18T01:26:03.822Z,975.96
2019-03-18T01:27:03.661Z,975.95
2019-03-18T01:28:03.577Z,975.96
2019-03-18T01:29:03.496Z,975.96
2019-03-18T01:30:03.405Z,975.94
2019-03-18T01:31:03.323Z,975.95
2019-03-18T01:32:03.233Z,975.97
2019-03-18T01:33:03.145Z,976.01
2019-03-18T01:34:03.064Z,975.96
2019-03-18T01:35:02.982Z,975.96
2019-03-18T01:36:02.895Z,975.95
2019-03-18T01:37:02.819Z,975.96
2019-03-18T01:38:02.723Z,976.01
2019-03-18T01:39:02.644Z,976.01
2019-03-18T01:40:02.561Z,976.00
2019-03-18T01:41:02.471Z,976.03
2019-03-18T01:42:02.401Z,976.05
2019-03-18T01:43:02.302Z,976.10
2019-03-18T01:44:02.219Z,976.08
2019-03-18T01:45:02.135Z,976.11
2019-03-18T01:46:02.050Z,976.09
2019-03-18T01:47:01.960Z,976.08
2019-03-18T01:48:01.876Z,976.11
2019-03-18T01:49:01.802Z,976.07
2019-03-18T01:50:01.709Z,976.07
2019-03-18T01:51:01.625Z,976.15
2019-03-18T01:52:01.541Z,976.19
2019-03-18T01:53:01.461Z,976.26
2019-03-18T01:54:01.374Z,976.36
2019-03-18T01:55:01.292Z,976.39
2019-03-18T01:56:01.202Z,976.48
2019-03-18T01:57:01.119Z,976.50
2019-03-18T01:58:01.033Z,976.50
2019-03-18T01:59:00.949Z,976.47
2019-03-18T02:00:00.859Z,976.42
2019-03-18T02:01:00.782Z,976.38
2019-03-18T02:02:00.694Z,976.36
2019-03-18T02:03:00.608Z,976.34
2019-03-18T02:04:00.526Z,976.34
2019-03-18T02:05:00.439Z,976.37
2019-03-18T02:06:00.358Z,976.40
2019-03-18T02:07:00.271Z,976.44
2019-03-18T02:08:00.250Z,976.43
2019-03-18T02:09:00.103Z,976.32
2019-03-18T02:10:00.011Z,976.30
2019-03-18T02:10:59.930Z,976.27
2019-03-18T02:11:59.846Z,976.23
2019-03-18T02:12:59.758Z,976.15
2019-03-18T02:13:59.675Z,976.19
2019-03-18T02:14:59.592Z,976.24
2019-03-18T02:15:59.503Z,976.29
2019-03-18T02:16:59.420Z,976.35
2019-03-18T02:17:59.336Z,976.37
2019-03-18T02:18:59.251Z,976.38
2019-03-18T02:19:59.168Z,976.43
2019-03-18T02:20:59.082Z,976.40
2019-03-18T02:21:58.996Z,976.37
2019-03-18T02:22:58.911Z,976.36
2019-03-18T02:23:58.825Z,976.37
2019-03-18T02:24:58.741Z,976.37
2019-03-18T02:25:58.657Z,976.41
2019-03-18T02:26:58.571Z,976.42
2019-03-18T02:27:58.487Z,976.43
2019-03-18T02:28:58.399Z,976.43
2019-03-18T02:29:58.314Z,976.39
2019-03-18T02:30:58.271Z,976.37
2019-03-18T02:31:58.143Z,976.34
2019-03-18T02:32:58.060Z,976.33
2019-03-18T02:33:57.970Z,976.32
2019-03-18T02:34:57.895Z,976.32
2019-03-18T02:35:57.803Z,976.36
2019-03-18T02:36:57.734Z,976.38
2019-03-18T02:37:57.631Z,976.48
2019-03-18T02:38:57.576Z,976.52
2019-03-18T02:39:57.462Z,976.51
2019-03-18T02:40:57.382Z,976.52
2019-03-18T02:41:57.294Z,976.43
2019-03-18T02:42:57.210Z,976.47
2019-03-18T02:43:57.117Z,976.49
2019-03-18T02:44:57.040Z,976.50
2019-03-18T02:46:09.253Z,976.55
2019-03-18T02:46:56.870Z,976.55
2019-03-18T02:47:56.783Z,976.57
2019-03-18T02:48:56.696Z,976.51
2019-03-18T02:49:56.622Z,976.42
2019-03-18T02:50:56.530Z,976.42
2019-03-18T02:51:56.442Z,976.45
2019-03-18T02:52:56.357Z,976.51
2019-03-18T02:53:56.272Z,976.53
2019-03-18T02:54:56.184Z,976.62
2019-03-18T02:55:56.103Z,976.57
2019-03-18T02:56:56.018Z,976.58
2019-03-18T02:57:55.927Z,976.50
2019-03-18T02:58:55.845Z,976.43
2019-03-18T02:59:55.756Z,976.43
2019-03-18T03:00:55.685Z,976.45
2019-03-18T03:01:55.590Z,976.48
2019-03-18T03:02:55.507Z,976.53
2019-03-18T03:03:55.423Z,976.59
2019-03-18T03:04:55.329Z,976.57
2019-03-18T03:05:55.247Z,976.57
2019-03-18T03:06:55.166Z,976.58
2019-03-18T03:07:55.077Z,976.51
2019-03-18T03:08:54.997Z,976.53
2019-03-18T03:09:54.920Z,976.53
2019-03-18T03:10:54.827Z,976.55
2019-03-18T03:11:54.742Z,976.54
2019-03-18T03:12:54.664Z,976.54
2019-03-18T03:13:54.570Z,976.54
2019-03-18T03:14:54.490Z,976.55
2019-03-18T03:15:54.397Z,976.55
2019-03-18T03:16:54.315Z,976.53
2019-03-18T03:17:54.230Z,976.52
2019-03-18T03:18:54.145Z,976.55
2019-03-18T03:19:54.067Z,976.58
2019-03-18T03:20:54.034Z,976.64
2019-03-18T03:21:54.046Z,976.70
2019-03-18T03:22:53.809Z,976.74
2019-03-18T03:23:53.722Z,976.80
2019-03-18T03:24:53.635Z,976.81
2019-03-18T03:25:53.549Z,976.81
2019-03-18T03:26:53.465Z,976.77
2019-03-18T03:27:53.374Z,976.87
2019-03-18T03:28:53.295Z,976.85
2019-03-18T03:29:53.212Z,976.90
2019-03-18T03:30:53.127Z,976.93
2019-03-18T03:31:53.039Z,976.90
2019-03-18T03:32:52.952Z,976.84
2019-03-18T03:33:52.863Z,976.88
2019-03-18T03:34:52.797Z,976.89
2019-03-18T03:35:52.699Z,976.91
2019-03-18T03:36:52.622Z,976.91
2019-03-18T03:37:52.540Z,976.92
2019-03-18T03:38:52.440Z,976.90
2019-03-18T03:39:52.352Z,976.91
2019-03-18T03:40:52.271Z,976.92
2019-03-18T03:41:52.201Z,976.91
2019-03-18T03:42:52.111Z,976.88
2019-03-18T03:43:52.013Z,976.88
2019-03-18T03:44:51.924Z,976.90
2019-03-18T03:45:51.876Z,976.91
2019-03-18T03:46:51.756Z,976.92
2019-03-18T03:47:51.671Z,976.91
2019-03-18T03:48:51.585Z,976.89
2019-03-18T03:49:51.623Z,976.86
2019-03-18T03:50:51.421Z,976.90
2019-03-18T03:51:51.329Z,976.89
2019-03-18T03:52:51.249Z,976.88
2019-03-18T03:53:51.164Z,976.86
2019-03-18T03:54:51.080Z,976.89
2019-03-18T03:55:50.999Z,976.91
2019-03-18T03:56:50.901Z,976.93
2019-03-18T03:57:50.820Z,976.93
2019-03-18T03:58:50.730Z,976.94
2019-03-18T03:59:50.643Z,976.98
2019-03-18T04:00:50.575Z,976.97
2019-03-18T04:01:50.474Z,976.96
2019-03-18T04:02:50.391Z,976.93
2019-03-18T04:03:50.313Z,976.97
2019-03-18T04:04:50.220Z,976.91
2019-03-18T04:05:50.145Z,976.91
2019-03-18T04:06:50.049Z,976.89
2019-03-18T04:07:49.961Z,976.93
2019-03-18T04:08:49.878Z,976.96
2019-03-18T04:09:49.795Z,976.94
2019-03-18T04:10:49.709Z,976.96
2019-03-18T04:11:49.627Z,976.86
2019-03-18T04:12:49.539Z,976.81
2019-03-18T04:13:49.468Z,976.80
2019-03-18T04:14:49.475Z,976.81
2019-03-18T04:15:49.281Z,976.78
2019-03-18T04:17:00.765Z,976.77
2019-03-18T04:17:49.105Z,976.77
2019-03-18T04:18:49.025Z,976.81
2019-03-18T04:19:48.940Z,976.85
2019-03-18T04:20:48.852Z,976.83
2019-03-18T04:21:50.606Z,976.85
2019-03-18T04:22:48.682Z,976.84
2019-03-18T04:23:48.701Z,976.86
2019-03-18T04:24:48.511Z,976.91
2019-03-18T04:25:48.427Z,976.97
2019-03-18T04:26:48.353Z,976.95
2019-03-18T04:27:48.257Z,976.99
2019-03-18T04:28:48.167Z,977.03
2019-03-18T04:29:48.083Z,977.05
2019-03-18T04:30:48.001Z,977.08
2019-03-18T04:31:47.913Z,977.14
2019-03-18T04:32:47.840Z,977.17
2019-03-18T04:33:47.768Z,977.23
2019-03-18T04:34:47.682Z,977.26
2019-03-18T04:35:47.570Z,977.19
2019-03-18T04:36:47.487Z,977.23
2019-03-18T04:37:47.396Z,977.19
2019-03-18T04:38:47.313Z,977.14
2019-03-18T04:39:47.229Z,977.12
2019-03-18T04:40:47.139Z,977.06
2019-03-18T04:41:47.050Z,977.03
2019-03-18T04:42:46.975Z,977.01
2019-03-18T04:43:46.884Z,977.03
2019-03-18T04:44:46.795Z,977.02
2019-03-18T04:45:46.713Z,977.05
2019-03-18T04:46:46.628Z,977.11
2019-03-18T04:47:46.543Z,977.12
2019-03-18T04:48:46.456Z,977.17
2019-03-18T04:49:46.373Z,977.23
2019-03-18T04:50:46.282Z,977.20
2019-03-18T04:51:46.196Z,977.23
2019-03-18T04:52:46.123Z,977.26
2019-03-18T04:53:46.028Z,977.26
2019-03-18T04:54:46.001Z,977.23
2019-03-18T04:55:45.868Z,977.25
2019-03-18T04:56:45.772Z,977.26
2019-03-18T04:57:45.686Z,977.21
2019-03-18T04:58:45.600Z,977.23
2019-03-18T04:59:45.520Z,977.26
2019-03-18T05:00:45.429Z,977.31
2019-03-18T05:01:45.339Z,977.33
2019-03-18T05:02:45.261Z,977.25
2019-03-18T05:03:45.174Z,977.20
2019-03-18T05:04:45.088Z,977.21
2019-03-18T05:05:44.995Z,977.16
2019-03-18T05:06:44.912Z,977.21
2019-03-18T05:07:44.830Z,977.27
2019-03-18T05:08:44.746Z,977.29
2019-03-18T05:09:44.661Z,977.28
2019-03-18T05:10:44.579Z,977.33
2019-03-18T05:11:44.487Z,977.37
2019-03-18T05:12:44.404Z,977.34
2019-03-18T05:13:44.342Z,977.43
2019-03-18T05:14:44.230Z,977.42
2019-03-18T05:15:44.199Z,977.37
2019-03-18T05:16:44.061Z,977.35
2019-03-18T05:17:43.978Z,977.37
2019-03-18T05:18:43.889Z,977.38
2019-03-18T05:19:43.804Z,977.37
2019-03-18T05:20:43.717Z,977.29
2019-03-18T05:21:43.632Z,977.29
2019-03-18T05:22:43.548Z,977.29
2019-03-18T05:23:43.464Z,977.27
2019-03-18T05:24:43.379Z,977.30
2019-03-18T05:25:43.282Z,977.28
2019-03-18T05:26:43.209Z,977.30
2019-03-18T05:27:43.115Z,977.38
2019-03-18T05:28:43.031Z,977.40
2019-03-18T05:29:42.947Z,977.41
2019-03-18T05:30:42.878Z,977.42
2019-03-18T05:31:42.780Z,977.41
2019-03-18T05:32:42.728Z,977.42
2019-03-18T05:33:42.607Z,977.44
2019-03-18T05:34:42.580Z,977.48
2019-03-18T05:35:42.437Z,977.51
2019-03-18T05:36:42.351Z,977.47
2019-03-18T05:37:42.273Z,977.50
2019-03-18T05:38:42.182Z,977.49
2019-03-18T05:39:42.094Z,977.47
2019-03-18T05:40:42.009Z,977.46
2019-03-18T05:41:41.924Z,977.50
2019-03-18T05:42:41.831Z,977.48
2019-03-18T05:43:41.754Z,977.50
2019-03-18T05:44:50.344Z,977.49
2019-03-18T05:46:46.981Z,977.50
2019-03-18T05:47:46.885Z,977.56
2019-03-18T05:48:46.785Z,977.55
2019-03-18T05:49:46.693Z,977.58
2019-03-18T05:50:46.611Z,977.60
2019-03-18T05:51:46.527Z,977.64
2019-03-18T05:52:46.444Z,977.64
2019-03-18T05:53:46.354Z,977.60
2019-03-18T05:54:46.269Z,977.59
2019-03-18T05:55:46.183Z,977.59
2019-03-18T05:56:46.101Z,977.57
2019-03-18T05:57:46.012Z,977.56
2019-03-18T05:58:45.930Z,977.56
2019-03-18T05:59:45.839Z,977.54
2019-03-18T06:00:45.757Z,977.54
2019-03-18T06:01:45.669Z,977.53
2019-03-18T06:02:46.998Z,977.57
2019-03-18T06:03:45.498Z,977.54
2019-03-18T06:04:45.412Z,977.49
2019-03-18T06:05:45.328Z,977.44
2019-03-18T06:06:45.240Z,977.46
2019-03-18T06:07:45.154Z,977.50
2019-03-18T06:08:45.076Z,977.42
2019-03-18T06:09:44.984Z,977.41
2019-03-18T06:10:44.898Z,977.40
2019-03-18T06:11:44.812Z,977.44
2019-03-18T06:12:44.737Z,977.49
2019-03-18T06:13:44.640Z,977.50
2019-03-18T06:14:44.555Z,977.48
2019-03-18T06:15:44.470Z,977.51
2019-03-18T06:16:44.385Z,977.52
2019-03-18T06:17:52.092Z,977.54
2019-03-18T06:18:44.213Z,977.59
2019-03-18T06:19:44.129Z,977.60
2019-03-18T06:20:44.043Z,977.64
2019-03-18T06:21:43.951Z,977.64
2019-03-18T06:22:43.869Z,977.63
2019-03-18T06:23:43.782Z,977.62
2019-03-18T06:24:43.698Z,977.60
2019-03-18T06:25:43.612Z,977.57
2019-03-18T06:26:43.526Z,977.54
2019-03-18T06:27:43.440Z,977.52
2019-03-18T06:28:43.360Z,977.52
2019-03-18T06:29:43.313Z,977.53
2019-03-18T06:30:43.178Z,977.58
2019-03-18T06:31:43.099Z,977.56
2019-03-18T06:32:43.010Z,977.65
2019-03-18T06:33:43.014Z,977.67
2019-03-18T06:34:42.841Z,977.70
2019-03-18T06:35:42.760Z,977.72
2019-03-18T06:36:42.669Z,977.76
2019-03-18T06:37:42.583Z,977.80
2019-03-18T06:38:42.497Z,977.79
2019-03-18T06:39:42.415Z,977.87
2019-03-18T06:40:42.333Z,977.90
2019-03-18T06:41:42.243Z,977.87
2019-03-18T06:42:42.149Z,977.90
2019-03-18T06:43:42.067Z,977.91
2019-03-18T06:44:41.980Z,977.90
2019-03-18T06:45:41.899Z,977.91
2019-03-18T06:46:41.813Z,977.90
2019-03-18T06:47:41.735Z,977.89
2019-03-18T06:48:41.645Z,977.88
2019-03-18T06:49:41.558Z,977.85
2019-03-18T06:50:41.466Z,977.84
2019-03-18T06:51:41.383Z,977.79
2019-03-18T06:52:41.307Z,977.81
2019-03-18T06:53:41.219Z,977.85
2019-03-18T06:54:41.128Z,977.85
2019-03-18T06:55:41.041Z,977.92
2019-03-18T06:56:40.963Z,977.94
2019-03-18T06:57:40.875Z,977.95
2019-03-18T06:58:40.785Z,977.96
2019-03-18T06:59:40.705Z,977.99
2019-03-18T07:00:40.619Z,977.92
2019-03-18T07:01:40.532Z,977.94
2019-03-18T07:02:40.444Z,977.92
2019-03-18T07:03:40.359Z,977.93
2019-03-18T07:04:40.275Z,977.97
2019-03-18T07:05:40.189Z,978.01
2019-03-18T07:06:40.104Z,978.01
2019-03-18T07:07:40.021Z,978.01
2019-03-18T07:08:39.931Z,978.00
2019-03-18T07:09:39.855Z,977.95
2019-03-18T07:10:39.755Z,977.94
2019-03-18T07:11:39.675Z,977.88
2019-03-18T07:12:39.605Z,977.89
2019-03-18T07:13:39.507Z,977.94
2019-03-18T07:14:39.422Z,977.97
2019-03-18T07:15:39.335Z,978.00
2019-03-18T07:16:39.247Z,977.94
2019-03-18T07:17:39.162Z,978.03
2019-03-18T07:18:39.080Z,978.00
2019-03-18T07:19:38.996Z,978.05
2019-03-18T07:20:38.910Z,978.05
2019-03-18T07:21:38.821Z,978.11
2019-03-18T07:22:38.738Z,978.15
2019-03-18T07:23:38.650Z,978.14
2019-03-18T07:24:38.569Z,978.15
2019-03-18T07:25:38.475Z,978.19
2019-03-18T07:26:38.393Z,978.16
2019-03-18T07:27:38.311Z,978.17
2019-03-18T07:28:38.225Z,978.23
2019-03-18T07:29:38.143Z,978.14
2019-03-18T07:30:38.057Z,978.18
2019-03-18T07:31:38.047Z,978.23
2019-03-18T07:32:37.886Z,978.24
2019-03-18T07:33:37.797Z,978.20
2019-03-18T07:34:37.712Z,978.17
2019-03-18T07:35:37.622Z,978.24
2019-03-18T07:36:37.619Z,978.21
2019-03-18T07:37:37.528Z,978.24
2019-03-18T07:38:37.374Z,978.18
2019-03-18T07:39:37.289Z,978.23
2019-03-18T07:40:37.204Z,978.23
2019-03-18T07:41:37.115Z,978.31
2019-03-18T07:42:37.032Z,978.29
2019-03-18T07:43:36.948Z,978.36
2019-03-18T07:44:36.863Z,978.33
2019-03-18T07:45:36.778Z,978.35
2019-03-18T07:46:36.693Z,978.37
2019-03-18T07:47:36.603Z,978.37
2019-03-18T07:48:36.521Z,978.33
2019-03-18T07:49:36.436Z,978.38
2019-03-18T07:50:36.352Z,978.40
2019-03-18T07:51:36.264Z,978.35
2019-03-18T07:52:36.181Z,978.42
2019-03-18T07:53:36.092Z,978.39
2019-03-18T07:54:36.011Z,978.42
2019-03-18T07:55:35.928Z,978.49
2019-03-18T07:56:35.839Z,978.44
2019-03-18T07:57:35.755Z,978.47
2019-03-18T07:58:35.671Z,978.45
2019-03-18T07:59:35.587Z,978.40
2019-03-18T08:00:35.550Z,978.47
2019-03-18T08:01:35.479Z,978.48
2019-03-18T08:02:35.331Z,978.47
2019-03-18T08:03:36.557Z,978.52
2019-03-18T08:04:37.741Z,978.54
2019-03-18T08:05:35.073Z,978.56
2019-03-18T08:06:34.989Z,978.54
2019-03-18T08:07:34.897Z,978.64
2019-03-18T08:08:34.870Z,978.60
2019-03-18T08:09:34.732Z,978.67
2019-03-18T08:10:34.647Z,978.68
2019-03-18T08:11:34.560Z,978.67
2019-03-18T08:12:34.478Z,978.63
2019-03-18T08:13:34.391Z,978.60
2019-03-18T08:14:34.307Z,978.62
2019-03-18T08:15:34.222Z,978.63
2019-03-18T08:16:34.137Z,978.64
2019-03-18T08:17:34.050Z,978.61
2019-03-18T08:18:42.662Z,978.63
2019-03-18T08:19:33.882Z,978.58
2019-03-18T08:20:33.796Z,978.58
2019-03-18T08:21:33.712Z,978.58
2019-03-18T08:22:33.627Z,978.68
2019-03-18T08:23:33.543Z,978.66
2019-03-18T08:24:33.453Z,978.67
2019-03-18T08:25:33.378Z,978.67
2019-03-18T08:26:33.289Z,978.64
2019-03-18T08:27:33.202Z,978.61
2019-03-18T08:28:33.132Z,978.67
2019-03-18T08:29:33.031Z,978.62
2019-03-18T08:30:32.949Z,978.61
2019-03-18T08:31:32.864Z,978.60
2019-03-18T08:32:32.781Z,978.59
2019-03-18T08:33:32.688Z,978.58
2019-03-18T08:34:32.614Z,978.56
2019-03-18T08:35:32.522Z,978.60
2019-03-18T08:36:32.436Z,978.66
2019-03-18T08:37:32.353Z,978.68
2019-03-18T08:38:32.269Z,978.72
2019-03-18T08:39:32.182Z,978.76
2019-03-18T08:40:32.102Z,978.75
2019-03-18T08:41:32.016Z,978.77
2019-03-18T08:42:31.928Z,978.80
2019-03-18T08:43:31.847Z,978.84
2019-03-18T08:44:31.760Z,978.81
2019-03-18T08:45:31.673Z,978.79
2019-03-18T08:46:31.593Z,978.79
2019-03-18T08:47:31.509Z,978.81
2019-03-18T08:48:31.419Z,978.81
2019-03-18T08:49:31.333Z,978.87
2019-03-18T08:50:31.251Z,978.85
2019-03-18T08:51:31.167Z,978.92
2019-03-18T08:52:31.080Z,978.90
2019-03-18T08:53:30.988Z,978.89
2019-03-18T08:54:30.910Z,978.98
2019-03-18T08:55:30.838Z,978.95
2019-03-18T08:56:30.738Z,978.92
2019-03-18T08:57:30.653Z,978.90
2019-03-18T08:58:30.571Z,978.92
2019-03-18T08:59:30.489Z,978.93
2019-03-18T09:00:30.400Z,978.98
2019-03-18T09:01:30.318Z,978.95
2019-03-18T09:02:30.230Z,978.90
2019-03-18T09:03:30.144Z,978.93
2019-03-18T09:04:30.060Z,978.89
2019-03-18T09:05:29.974Z,978.94
2019-03-18T09:06:30.502Z,978.95
2019-03-18T09:07:29.804Z,978.93
2019-03-18T09:08:29.717Z,978.94
2019-03-18T09:09:29.638Z,978.94
2019-03-18T09:10:29.547Z,978.95
2019-03-18T09:11:29.460Z,978.93
2019-03-18T09:12:29.378Z,978.94
2019-03-18T09:13:31.950Z,978.93
2019-03-18T09:14:29.206Z,978.96
2019-03-18T09:15:29.120Z,978.97
2019-03-18T09:16:29.030Z,979.02
2019-03-18T09:17:28.956Z,979.04
2019-03-18T09:18:28.861Z,979.06
2019-03-18T09:19:28.781Z,979.06
2019-03-18T09:20:28.696Z,979.06
2019-03-18T09:21:28.610Z,979.09
2019-03-18T09:22:28.525Z,979.09
2019-03-18T09:23:28.434Z,979.10
2019-03-18T09:24:28.353Z,979.10
2019-03-18T09:25:28.271Z,979.14
2019-03-18T09:26:28.190Z,979.14
2019-03-18T09:27:28.095Z,979.12
2019-03-18T09:28:28.015Z,979.10
2019-03-18T09:29:27.928Z,979.09
2019-03-18T09:30:27.846Z,979.10
2019-03-18T09:31:27.791Z,979.07
2019-03-18T09:32:27.673Z,979.09
2019-03-18T09:33:27.595Z,979.09
2019-03-18T09:34:27.498Z,979.07
2019-03-18T09:35:27.417Z,979.05
2019-03-18T09:36:27.333Z,979.04
2019-03-18T09:37:27.244Z,979.02
2019-03-18T09:38:27.174Z,979.04
2019-03-18T09:39:27.089Z,979.03
2019-03-18T09:40:29.324Z,979.05
2019-03-18T09:41:26.908Z,979.03
2019-03-18T09:42:26.828Z,979.03
2019-03-18T09:43:26.743Z,979.08
2019-03-18T09:44:26.676Z,978.99
2019-03-18T09:45:26.572Z,979.06
2019-03-18T09:46:26.487Z,979.07
2019-03-18T09:47:26.407Z,979.03
2019-03-18T09:48:26.323Z,979.02
2019-03-18T09:49:26.241Z,979.01
2019-03-18T09:50:26.144Z,979.01
2019-03-18T09:51:26.068Z,979.09
2019-03-18T09:52:25.985Z,979.03
2019-03-18T09:53:25.899Z,979.09
2019-03-18T09:54:25.811Z,979.08
2019-03-18T09:55:25.726Z,979.03
2019-03-18T09:56:25.647Z,979.09
2019-03-18T09:57:26.613Z,979.11
2019-03-18T09:58:25.477Z,979.11
2019-03-18T09:59:25.394Z,979.11
2019-03-18T10:00:25.307Z,979.12
2019-03-18T10:01:25.224Z,979.16
2019-03-18T10:02:25.138Z,979.15
2019-03-18T10:03:25.055Z,979.16
2019-03-18T10:04:24.964Z,979.11
2019-03-18T10:05:24.892Z,979.10
2019-03-18T10:06:24.805Z,979.18
2019-03-18T10:07:24.717Z,979.14
2019-03-18T10:08:25.307Z,979.14
2019-03-18T10:09:24.550Z,979.11
2019-03-18T10:10:24.462Z,979.15
2019-03-18T10:11:24.379Z,979.14
2019-03-18T10:12:24.294Z,979.17
2019-03-18T10:13:24.206Z,979.13
2019-03-18T10:14:24.132Z,979.27
2019-03-18T10:15:24.041Z,979.15
2019-03-18T10:16:23.960Z,979.13
2019-03-18T10:17:23.890Z,979.25
2019-03-18T10:18:23.786Z,979.19
2019-03-18T10:19:32.953Z,979.18
2019-03-18T10:20:23.621Z,979.24
2019-03-18T10:21:23.538Z,979.21
2019-03-18T10:22:23.453Z,979.16
2019-03-18T10:23:23.375Z,979.21
2019-03-18T10:24:23.279Z,979.20
2019-03-18T10:25:23.206Z,979.21
2019-03-18T10:26:23.135Z,979.22
2019-03-18T10:27:23.032Z,979.19
2019-03-18T10:28:22.956Z,979.21
2019-03-18T10:29:22.864Z,979.21
2019-03-18T10:30:22.780Z,979.24
2019-03-18T10:31:22.702Z,979.24
2019-03-18T10:32:22.615Z,979.33
2019-03-18T10:33:22.523Z,979.26
2019-03-18T10:34:22.444Z,979.30
2019-03-18T10:35:22.361Z,979.24
2019-03-18T10:36:22.276Z,979.33
2019-03-18T10:37:22.192Z,979.35
2019-03-18T10:38:22.104Z,979.34
2019-03-18T10:39:22.024Z,979.37
2019-03-18T10:40:21.943Z,979.35
2019-03-18T10:41:21.859Z,979.31
2019-03-18T10:42:21.775Z,979.39
2019-03-18T10:43:21.688Z,979.37
2019-03-18T10:44:21.604Z,979.48
2019-03-18T10:45:21.517Z,979.46
2019-03-18T10:46:21.443Z,979.54
2019-03-18T10:47:21.354Z,979.49
2019-03-18T10:48:21.264Z,979.45
2019-03-18T10:49:21.190Z,979.51
2019-03-18T10:50:21.102Z,979.49
2019-03-18T10:51:21.019Z,979.54
2019-03-18T10:52:20.935Z,979.45
2019-03-18T10:53:20.850Z,979.48
2019-03-18T10:54:30.389Z,979.49
2019-03-18T10:55:20.682Z,979.52
2019-03-18T10:56:20.600Z,979.53
2019-03-18T10:57:20.510Z,979.54
2019-03-18T10:58:20.431Z,979.59
2019-03-18T10:59:20.353Z,979.72
2019-03-18T11:00:20.265Z,979.62
2019-03-18T11:01:20.181Z,979.66
2019-03-18T11:02:20.098Z,979.64
2019-03-18T11:03:20.013Z,979.68
2019-03-18T11:04:19.925Z,979.72
2019-03-18T11:05:19.842Z,979.71
2019-03-18T11:06:19.763Z,979.70
2019-03-18T11:07:19.676Z,979.72
2019-03-18T11:08:19.587Z,979.68
2019-03-18T11:09:19.509Z,979.71
2019-03-18T11:10:19.426Z,979.70
2019-03-18T11:11:19.341Z,979.72
2019-03-18T11:12:19.256Z,979.69
2019-03-18T11:13:19.165Z,979.71
2019-03-18T11:14:19.085Z,979.70
2019-03-18T11:15:19.003Z,979.71
2019-03-18T11:16:18.921Z,979.70
2019-03-18T11:17:18.836Z,979.78
2019-03-18T11:18:18.746Z,979.71
2019-03-18T11:19:18.662Z,979.74
2019-03-18T11:20:18.581Z,979.81
2019-03-18T11:21:18.497Z,979.77
2019-03-18T11:22:18.412Z,979.83
2019-03-18T11:23:18.328Z,979.87
2019-03-18T11:24:18.253Z,979.87
2019-03-18T11:25:18.162Z,979.89
2019-03-18T11:26:18.072Z,979.78
2019-03-18T11:27:17.994Z,979.80
2019-03-18T11:28:17.910Z,979.80
2019-03-18T11:29:17.826Z,979.82
2019-03-18T11:30:17.762Z,979.91
2019-03-18T11:31:17.664Z,979.99
2019-03-18T11:32:17.577Z,979.97
2019-03-18T11:33:17.497Z,979.89
2019-03-18T11:34:17.416Z,979.90
2019-03-18T11:35:17.334Z,979.85
2019-03-18T11:36:17.255Z,979.90
2019-03-18T11:37:17.174Z,979.93
2019-03-18T11:38:17.096Z,979.84
2019-03-18T11:39:17.014Z,979.80
2019-03-18T11:40:16.934Z,979.86
2019-03-18T11:41:17.635Z,979.86
2019-03-18T11:42:16.774Z,979.84
2019-03-18T11:43:16.710Z,979.95
2019-03-18T11:44:16.616Z,979.93
2019-03-18T11:45:23.699Z,979.95
2019-03-18T11:47:20.354Z,979.88
2019-03-18T11:48:20.270Z,979.94
2019-03-18T11:49:20.183Z,979.91
2019-03-18T11:50:20.108Z,979.96
2019-03-18T11:51:20.032Z,979.97
2019-03-18T11:52:19.955Z,979.88
2019-03-18T11:53:19.872Z,979.75
2019-03-18T11:54:19.820Z,979.76
2019-03-18T11:55:19.730Z,979.73
2019-03-18T11:56:19.645Z,979.72
2019-03-18T11:57:19.603Z,979.69
2019-03-18T11:58:19.490Z,979.80
2019-03-18T11:59:20.981Z,979.79
2019-03-18T12:00:19.335Z,979.87
2019-03-18T12:01:19.264Z,979.90
2019-03-18T12:02:27.765Z,979.86
2019-03-18T12:03:19.105Z,979.76
2019-03-18T12:04:19.038Z,979.88
2019-03-18T12:05:18.952Z,979.91
2019-03-18T12:06:18.875Z,979.91
2019-03-18T12:07:18.803Z,979.92
2019-03-18T12:08:18.729Z,979.95
2019-03-18T12:09:18.651Z,979.90
2019-03-18T12:10:18.585Z,979.97
2019-03-18T12:11:18.518Z,979.90
2019-03-18T12:12:18.440Z,979.83
2019-03-18T12:13:18.370Z,979.88
2019-03-18T12:14:18.298Z,979.97
2019-03-18T12:15:21.280Z,979.89
2019-03-18T12:16:18.166Z,979.93
2019-03-18T12:17:18.092Z,979.97
2019-03-18T12:18:18.081Z,979.91
2019-03-18T12:19:17.956Z,979.64
2019-03-18T12:20:24.343Z,979.74
2019-03-18T12:21:17.816Z,979.90
2019-03-18T12:22:17.752Z,979.99
2019-03-18T12:23:17.676Z,979.95
2019-03-18T12:24:17.608Z,979.96
2019-03-18T12:25:17.545Z,979.96
2019-03-18T12:26:17.471Z,979.86
2019-03-18T12:27:17.402Z,979.79
2019-03-18T12:28:17.338Z,979.84
2019-03-18T12:29:17.261Z,979.82